createdAt,value
2023-12-11T00:00:15.376Z,569.00
2023-12-11T00:01:15.492Z,570.00
2023-12-11T00:02:15.408Z,571.00
2023-12-11T00:03:15.444Z,568.00
2023-12-11T00:04:15.534Z,566.00
2023-12-11T00:05:15.506Z,568.00
2023-12-11T00:06:15.472Z,567.00
2023-12-11T00:07:15.534Z,567.00
2023-12-11T00:08:15.489Z,567.00
2023-12-11T00:09:15.493Z,566.00
2023-12-11T00:10:15.603Z,567.00
2023-12-11T00:11:15.536Z,565.00
2023-12-11T00:12:15.564Z,564.00
2023-12-11T00:13:15.613Z,565.00
2023-12-11T00:14:15.615Z,564.00
2023-12-11T00:15:15.640Z,564.00
2023-12-11T00:16:15.639Z,566.00
2023-12-11T00:17:15.650Z,565.00
2023-12-11T00:18:15.724Z,566.00
2023-12-11T00:19:15.872Z,568.00
2023-12-11T00:20:15.693Z,570.00
2023-12-11T00:21:15.722Z,569.00
2023-12-11T00:22:15.778Z,570.00
2023-12-11T00:23:15.768Z,571.00
2023-12-11T00:24:15.765Z,570.00
2023-12-11T00:25:15.803Z,568.00
2023-12-11T00:26:15.807Z,567.00
2023-12-11T00:27:15.822Z,567.00
2023-12-11T00:28:15.915Z,570.00
2023-12-11T00:29:15.851Z,572.00
2023-12-11T00:30:15.901Z,571.00
2023-12-11T00:31:16.016Z,570.00
2023-12-11T00:32:15.905Z,570.00
2023-12-11T00:33:16.005Z,571.00
2023-12-11T00:34:16.010Z,571.00
2023-12-11T00:35:15.965Z,570.00
2023-12-11T00:36:15.987Z,568.00
2023-12-11T00:37:16.002Z,570.00
2023-12-11T00:38:16.020Z,571.00
2023-12-11T00:39:16.027Z,572.00
2023-12-11T00:40:16.094Z,572.00
2023-12-11T00:41:16.065Z,572.00
2023-12-11T00:42:16.076Z,570.00
2023-12-11T00:43:16.139Z,569.00
2023-12-11T00:44:16.104Z,568.00
2023-12-11T00:45:16.115Z,568.00
2023-12-11T00:46:16.153Z,569.00
2023-12-11T00:47:16.274Z,568.00
2023-12-11T00:48:16.236Z,569.00
2023-12-11T00:49:16.320Z,570.00
2023-12-11T00:50:16.246Z,568.00
2023-12-11T00:51:16.243Z,567.00
2023-12-11T00:52:16.283Z,568.00
2023-12-11T00:53:16.280Z,568.00
2023-12-11T00:54:16.307Z,569.00
2023-12-11T00:55:16.366Z,570.00
2023-12-11T00:56:16.471Z,570.00
2023-12-11T00:57:16.340Z,570.00
2023-12-11T00:58:16.504Z,569.00
2023-12-11T00:59:16.449Z,570.00
2023-12-11T01:00:16.398Z,569.00
2023-12-11T01:01:16.478Z,569.00
2023-12-11T01:02:16.403Z,570.00
2023-12-11T01:03:16.459Z,570.00
2023-12-11T01:04:16.481Z,569.00
2023-12-11T01:05:16.506Z,570.00
2023-12-11T01:06:16.453Z,571.00
2023-12-11T01:07:16.555Z,573.00
2023-12-11T01:08:16.519Z,575.00
2023-12-11T01:09:16.540Z,573.00
2023-12-11T01:10:16.590Z,573.00
2023-12-11T01:11:16.568Z,575.00
2023-12-11T01:12:16.588Z,574.00
2023-12-11T01:13:16.590Z,574.00
2023-12-11T01:14:16.596Z,574.00
2023-12-11T01:15:16.626Z,574.00
2023-12-11T01:16:16.745Z,578.00
2023-12-11T01:17:37.268Z,578.00
2023-12-11T01:18:17.719Z,579.00
2023-12-11T01:19:16.791Z,578.00
2023-12-11T01:20:16.678Z,574.00
2023-12-11T01:21:16.650Z,574.00
2023-12-11T01:22:16.649Z,574.00
2023-12-11T01:23:16.680Z,575.00
2023-12-11T01:24:16.651Z,576.00
2023-12-11T01:25:16.734Z,575.00
2023-12-11T01:26:16.657Z,575.00
2023-12-11T01:27:16.669Z,574.00
2023-12-11T01:28:16.710Z,572.00
2023-12-11T01:29:16.668Z,570.00
2023-12-11T01:30:16.670Z,571.00
2023-12-11T01:31:16.754Z,570.00
2023-12-11T01:32:16.682Z,572.00
2023-12-11T01:33:16.811Z,571.00
2023-12-11T01:34:16.752Z,570.00
2023-12-11T01:35:16.719Z,570.00
2023-12-11T01:36:16.690Z,570.00
2023-12-11T01:37:16.706Z,569.00
2023-12-11T01:38:16.700Z,571.00
2023-12-11T01:39:16.698Z,571.00
2023-12-11T01:40:16.796Z,571.00
2023-12-11T01:41:16.715Z,572.00
2023-12-11T01:42:16.720Z,574.00
2023-12-11T01:43:18.839Z,573.00
2023-12-11T01:44:16.774Z,572.00
2023-12-11T01:45:16.730Z,571.00
2023-12-11T01:46:16.775Z,573.00
2023-12-11T01:47:16.795Z,572.00
2023-12-11T01:48:17.003Z,571.00
2023-12-11T01:49:16.926Z,571.00
2023-12-11T01:50:16.753Z,569.00
2023-12-11T01:51:16.764Z,569.00
2023-12-11T01:52:16.787Z,569.00
2023-12-11T01:53:16.771Z,568.00
2023-12-11T01:54:16.777Z,568.00
2023-12-11T01:55:16.769Z,566.00
2023-12-11T01:56:16.771Z,566.00
2023-12-11T01:57:16.764Z,568.00
2023-12-11T01:58:16.796Z,568.00
2023-12-11T01:59:16.807Z,569.00
2023-12-11T02:00:16.785Z,571.00
2023-12-11T02:01:16.883Z,571.00
2023-12-11T02:02:16.788Z,570.00
2023-12-11T02:03:16.892Z,570.00
2023-12-11T02:04:16.859Z,567.00
2023-12-11T02:05:16.816Z,570.00
2023-12-11T02:06:16.789Z,570.00
2023-12-11T02:07:16.791Z,569.00
2023-12-11T02:08:16.765Z,571.00
2023-12-11T02:09:16.776Z,573.00
2023-12-11T02:10:16.819Z,570.00
2023-12-11T02:11:16.776Z,569.00
2023-12-11T02:12:16.775Z,570.00
2023-12-11T02:13:16.802Z,569.00
2023-12-11T02:14:16.787Z,567.00
2023-12-11T02:15:16.805Z,570.00
2023-12-11T02:16:16.876Z,570.00
2023-12-11T02:17:16.790Z,569.00
2023-12-11T02:18:16.962Z,571.00
2023-12-11T02:19:16.911Z,568.00
2023-12-11T02:20:16.804Z,571.00
2023-12-11T02:21:16.820Z,570.00
2023-12-11T02:22:16.864Z,567.00
2023-12-11T02:23:16.824Z,567.00
2023-12-11T02:24:16.836Z,570.00
2023-12-11T02:25:16.855Z,571.00
2023-12-11T02:26:16.839Z,573.00
2023-12-11T02:27:16.837Z,573.00
2023-12-11T02:28:16.863Z,573.00
2023-12-11T02:29:16.850Z,572.00
2023-12-11T02:30:16.860Z,574.00
2023-12-11T02:31:16.910Z,573.00
2023-12-11T02:32:16.848Z,573.00
2023-12-11T02:33:16.905Z,573.00
2023-12-11T02:34:16.864Z,574.00
2023-12-11T02:35:16.842Z,574.00
2023-12-11T02:36:16.869Z,574.00
2023-12-11T02:37:16.875Z,576.00
2023-12-11T02:38:16.911Z,578.00
2023-12-11T02:39:16.855Z,577.00
2023-12-11T02:40:16.926Z,576.00
2023-12-11T02:41:16.906Z,574.00
2023-12-11T02:42:16.882Z,575.00
2023-12-11T02:43:16.873Z,574.00
2023-12-11T02:44:16.856Z,573.00
2023-12-11T02:45:16.861Z,576.00
2023-12-11T02:46:16.920Z,577.00
2023-12-11T02:47:16.869Z,577.00
2023-12-11T02:48:16.975Z,576.00
2023-12-11T02:49:16.992Z,575.00
2023-12-11T02:50:16.864Z,572.00
2023-12-11T02:51:16.906Z,571.00
2023-12-11T02:52:16.906Z,570.00
2023-12-11T02:53:16.865Z,569.00
2023-12-11T02:54:16.901Z,567.00
2023-12-11T02:55:16.894Z,568.00
2023-12-11T02:56:16.874Z,568.00
2023-12-11T02:57:16.874Z,566.00
2023-12-11T02:58:16.909Z,566.00
2023-12-11T02:59:17.316Z,565.00
2023-12-11T03:00:16.879Z,565.00
2023-12-11T03:01:17.034Z,563.00
2023-12-11T03:02:16.903Z,566.00
2023-12-11T03:03:16.943Z,565.00
2023-12-11T03:04:16.993Z,565.00
2023-12-11T03:05:16.924Z,566.00
2023-12-11T03:06:16.956Z,567.00
2023-12-11T03:07:16.990Z,567.00
2023-12-11T03:08:16.936Z,568.00
2023-12-11T03:09:16.948Z,571.00
2023-12-11T03:10:17.030Z,572.00
2023-12-11T03:11:16.979Z,573.00
2023-12-11T03:12:16.974Z,573.00
2023-12-11T03:13:17.018Z,573.00
2023-12-11T03:14:16.968Z,577.00
2023-12-11T03:15:16.973Z,575.00
2023-12-11T03:16:17.023Z,574.00
2023-12-11T03:17:16.985Z,575.00
2023-12-11T03:18:17.057Z,574.00
2023-12-11T03:19:17.074Z,573.00
2023-12-11T03:20:17.007Z,571.00
2023-12-11T03:21:17.013Z,570.00
2023-12-11T03:22:17.023Z,572.00
2023-12-11T03:23:16.997Z,570.00
2023-12-11T03:24:17.006Z,570.00
2023-12-11T03:25:17.122Z,569.00
2023-12-11T03:26:17.029Z,573.00
2023-12-11T03:27:17.019Z,573.00
2023-12-11T03:28:17.041Z,570.00
2023-12-11T03:29:17.032Z,573.00
2023-12-11T03:30:17.031Z,577.00
2023-12-11T03:31:17.104Z,574.00
2023-12-11T03:32:17.043Z,574.00
2023-12-11T03:33:17.062Z,573.00
2023-12-11T03:34:17.064Z,573.00
2023-12-11T03:35:17.055Z,575.00
2023-12-11T03:36:17.057Z,576.00
2023-12-11T03:37:17.056Z,576.00
2023-12-11T03:38:17.062Z,576.00
2023-12-11T03:39:17.071Z,576.00
2023-12-11T03:40:17.112Z,577.00
2023-12-11T03:41:17.080Z,574.00
2023-12-11T03:42:17.079Z,573.00
2023-12-11T03:43:17.133Z,574.00
2023-12-11T03:44:17.078Z,574.00
2023-12-11T03:45:17.089Z,576.00
2023-12-11T03:46:17.141Z,572.00
2023-12-11T03:47:17.100Z,571.00
2023-12-11T03:48:17.173Z,573.00
2023-12-11T03:49:17.171Z,574.00
2023-12-11T03:50:17.093Z,575.00
2023-12-11T03:51:17.094Z,574.00
2023-12-11T03:52:17.133Z,578.00
2023-12-11T03:53:17.092Z,577.00
2023-12-11T03:54:17.106Z,575.00
2023-12-11T03:55:17.136Z,576.00
2023-12-11T03:56:17.121Z,575.00
2023-12-11T03:57:17.121Z,576.00
2023-12-11T03:58:17.210Z,575.00
2023-12-11T03:59:17.140Z,577.00
2023-12-11T04:00:17.156Z,578.00
2023-12-11T04:01:17.251Z,579.00
2023-12-11T04:02:17.343Z,579.00
2023-12-11T04:03:17.139Z,577.00
2023-12-11T04:04:17.257Z,574.00
2023-12-11T04:05:17.152Z,575.00
2023-12-11T04:06:17.168Z,575.00
2023-12-11T04:07:17.222Z,578.00
2023-12-11T04:08:17.199Z,576.00
2023-12-11T04:09:17.234Z,575.00
2023-12-11T04:10:17.291Z,572.00
2023-12-11T04:11:17.296Z,575.00
2023-12-11T04:12:17.339Z,575.00
2023-12-11T04:13:17.461Z,575.00
2023-12-11T04:14:17.430Z,576.00
2023-12-11T04:15:17.487Z,575.00
2023-12-11T04:16:17.545Z,574.00
2023-12-11T04:17:17.604Z,574.00
2023-12-11T04:18:17.693Z,574.00
2023-12-11T04:19:17.782Z,572.00
2023-12-11T04:20:17.726Z,572.00
2023-12-11T04:21:17.850Z,572.00
2023-12-11T04:22:17.856Z,569.00
2023-12-11T04:23:17.861Z,569.00
2023-12-11T04:24:17.921Z,569.00
2023-12-11T04:25:18.033Z,566.00
2023-12-11T04:26:18.017Z,567.00
2023-12-11T04:27:18.075Z,567.00
2023-12-11T04:28:18.152Z,567.00
2023-12-11T04:29:18.198Z,567.00
2023-12-11T04:30:18.313Z,566.00
2023-12-11T04:31:18.336Z,566.00
2023-12-11T04:32:18.390Z,569.00
2023-12-11T04:33:18.542Z,570.00
2023-12-11T04:34:18.503Z,573.00
2023-12-11T04:35:18.533Z,573.00
2023-12-11T04:36:18.607Z,573.00
2023-12-11T04:37:18.681Z,571.00
2023-12-11T04:38:18.705Z,570.00
2023-12-11T04:39:18.759Z,572.00
2023-12-11T04:40:18.841Z,571.00
2023-12-11T04:41:18.871Z,573.00
2023-12-11T04:42:18.952Z,574.00
2023-12-11T04:43:18.983Z,576.00
2023-12-11T04:44:19.041Z,576.00
2023-12-11T04:45:19.084Z,576.00
2023-12-11T04:46:19.193Z,575.00
2023-12-11T04:47:19.198Z,576.00
2023-12-11T04:48:19.350Z,581.00
2023-12-11T04:49:19.378Z,583.00
2023-12-11T04:50:19.378Z,584.00
2023-12-11T04:51:19.448Z,584.00
2023-12-11T04:52:19.528Z,584.00
2023-12-11T04:53:19.564Z,583.00
2023-12-11T04:54:19.615Z,582.00
2023-12-11T04:55:19.746Z,580.00
2023-12-11T04:56:19.745Z,580.00
2023-12-11T04:57:19.794Z,581.00
2023-12-11T04:58:19.881Z,577.00
2023-12-11T04:59:19.908Z,580.00
2023-12-11T05:00:19.982Z,580.00
2023-12-11T05:01:20.107Z,577.00
2023-12-11T05:02:20.102Z,580.00
2023-12-11T05:03:27.458Z,579.00
2023-12-11T05:04:27.448Z,580.00
2023-12-11T05:05:27.602Z,578.00
2023-12-11T05:06:27.486Z,579.00
2023-12-11T05:07:27.603Z,578.00
2023-12-11T05:08:30.118Z,574.00
2023-12-11T05:09:27.481Z,573.00
2023-12-11T05:10:27.498Z,574.00
2023-12-11T05:11:27.579Z,574.00
2023-12-11T05:12:27.506Z,571.00
2023-12-11T05:13:27.497Z,570.00
2023-12-11T05:14:27.489Z,570.00
2023-12-11T05:15:27.494Z,569.00
2023-12-11T05:16:28.297Z,570.00
2023-12-11T05:17:27.615Z,569.00
2023-12-11T05:18:27.504Z,569.00
2023-12-11T05:19:27.602Z,568.00
2023-12-11T05:20:27.518Z,569.00
2023-12-11T05:21:27.527Z,569.00
2023-12-11T05:22:27.573Z,568.00
2023-12-11T05:23:27.523Z,567.00
2023-12-11T05:24:27.531Z,564.00
2023-12-11T05:25:27.535Z,563.00
2023-12-11T05:26:27.541Z,558.00
2023-12-11T05:27:27.675Z,559.00
2023-12-11T05:28:27.569Z,557.00
2023-12-11T05:29:27.567Z,560.00
2023-12-11T05:30:27.628Z,562.00
2023-12-11T05:31:27.562Z,565.00
2023-12-11T05:32:27.625Z,563.00
2023-12-11T05:33:27.652Z,563.00
2023-12-11T05:34:27.661Z,563.00
2023-12-11T05:35:27.590Z,562.00
2023-12-11T05:36:27.612Z,563.00
2023-12-11T05:37:27.824Z,564.00
2023-12-11T05:38:27.614Z,568.00
2023-12-11T05:39:27.615Z,569.00
2023-12-11T05:40:27.745Z,567.00
2023-12-11T05:41:27.627Z,569.00
2023-12-11T05:42:27.613Z,570.00
2023-12-11T05:43:27.609Z,568.00
2023-12-11T05:44:27.635Z,566.00
2023-12-11T05:45:27.702Z,563.00
2023-12-11T05:46:27.752Z,569.00
2023-12-11T05:47:28.068Z,569.00
2023-12-11T05:48:27.990Z,569.00
2023-12-11T05:49:28.006Z,571.00
2023-12-11T05:50:27.986Z,570.00
2023-12-11T05:51:28.051Z,570.00
2023-12-11T05:52:29.096Z,570.00
2023-12-11T05:53:29.008Z,570.00
2023-12-11T05:54:28.243Z,570.00
2023-12-11T05:55:28.293Z,567.00
2023-12-11T05:56:28.403Z,568.00
2023-12-11T05:57:28.613Z,567.00
2023-12-11T05:58:28.486Z,565.00
2023-12-11T05:59:28.526Z,563.00
2023-12-11T06:00:28.602Z,562.00
2023-12-11T06:01:28.809Z,561.00
2023-12-11T06:02:28.709Z,565.00
2023-12-11T06:03:28.748Z,564.00
2023-12-11T06:04:28.801Z,564.00
2023-12-11T06:05:28.930Z,566.00
2023-12-11T06:06:30.943Z,565.00
2023-12-11T06:07:29.142Z,564.00
2023-12-11T06:08:28.912Z,564.00
2023-12-11T06:09:28.915Z,566.00
2023-12-11T06:10:28.955Z,565.00
2023-12-11T06:11:28.931Z,566.00
2023-12-11T06:12:28.930Z,569.00
2023-12-11T06:13:28.945Z,566.00
2023-12-11T06:14:28.960Z,564.00
2023-12-11T06:15:28.960Z,563.00
2023-12-11T06:16:28.981Z,565.00
2023-12-11T06:17:29.250Z,564.00
2023-12-11T06:18:29.023Z,565.00
2023-12-11T06:19:29.033Z,563.00
2023-12-11T06:20:28.973Z,564.00
2023-12-11T06:21:28.981Z,566.00
2023-12-11T06:22:28.988Z,567.00
2023-12-11T06:23:28.989Z,569.00
2023-12-11T06:24:28.999Z,571.00
2023-12-11T06:25:28.986Z,573.00
2023-12-11T06:26:28.992Z,573.00
2023-12-11T06:27:29.408Z,609.00
2023-12-11T06:28:29.000Z,615.00
2023-12-11T06:29:28.993Z,618.00
2023-12-11T06:30:29.084Z,620.00
2023-12-11T06:31:29.009Z,629.00
2023-12-11T06:32:29.015Z,670.00
2023-12-11T06:33:29.019Z,705.00
2023-12-11T06:34:29.153Z,747.00
2023-12-11T06:35:29.085Z,756.00
2023-12-11T06:36:29.019Z,765.00
2023-12-11T06:37:29.179Z,803.00
2023-12-11T06:38:29.068Z,828.00
2023-12-11T06:39:29.087Z,854.00
2023-12-11T06:40:29.044Z,905.00
2023-12-11T06:41:29.061Z,928.00
2023-12-11T06:42:29.055Z,958.00
2023-12-11T06:43:29.108Z,987.00
2023-12-11T06:44:29.064Z,1000.00
2023-12-11T06:45:30.421Z,1022.00
2023-12-11T06:46:29.101Z,1084.00
2023-12-11T06:47:29.355Z,1115.00
2023-12-11T06:48:29.093Z,1130.00
2023-12-11T06:49:30.614Z,1145.00
2023-12-11T06:50:29.161Z,1174.00
2023-12-11T06:51:29.077Z,1214.00
2023-12-11T06:52:29.031Z,1234.00
2023-12-11T06:53:29.031Z,1255.00
2023-12-11T06:54:29.028Z,1275.00
2023-12-11T06:55:29.108Z,1290.00
2023-12-11T06:56:29.029Z,1318.00
2023-12-11T06:57:29.297Z,1351.00
2023-12-11T06:58:29.069Z,1371.00
2023-12-11T06:59:29.023Z,1386.00
2023-12-11T07:00:29.035Z,1434.00
2023-12-11T07:01:29.119Z,1451.00
2023-12-11T07:02:29.145Z,1469.00
2023-12-11T07:03:29.124Z,1485.00
2023-12-11T07:04:29.364Z,1500.00
2023-12-11T07:05:29.162Z,1530.00
2023-12-11T07:06:29.056Z,1553.00
2023-12-11T07:07:29.234Z,1604.00
2023-12-11T07:08:29.032Z,1620.00
2023-12-11T07:09:29.081Z,1638.00
2023-12-11T07:10:29.139Z,1657.00
2023-12-11T07:11:29.198Z,1675.00
2023-12-11T07:12:29.263Z,1708.00
2023-12-11T07:13:29.371Z,1734.00
2023-12-11T07:14:29.442Z,1755.00
2023-12-11T07:15:29.433Z,1786.00
2023-12-11T07:16:29.490Z,1833.00
2023-12-11T07:17:30.705Z,1850.00
2023-12-11T07:18:29.695Z,1866.00
2023-12-11T07:19:30.185Z,1904.00
2023-12-11T07:20:29.688Z,1918.00
2023-12-11T07:21:29.817Z,1979.00
2023-12-11T07:22:29.789Z,1995.00
2023-12-11T07:23:29.849Z,2011.00
2023-12-11T07:24:30.657Z,2052.00
2023-12-11T07:25:29.998Z,2075.00
2023-12-11T07:26:29.986Z,2093.00
2023-12-11T07:27:30.184Z,2134.00
2023-12-11T07:28:30.063Z,2168.00
2023-12-11T07:29:30.116Z,2281.00
2023-12-11T07:30:30.406Z,2309.00
2023-12-11T07:31:30.201Z,2356.00
2023-12-11T07:32:30.277Z,2367.00
2023-12-11T07:33:30.369Z,2418.00
2023-12-11T07:34:30.727Z,2436.00
2023-12-11T07:35:30.398Z,2495.00
2023-12-11T07:36:30.396Z,2502.00
2023-12-11T07:37:30.625Z,2527.00
2023-12-11T07:38:30.456Z,2558.00
2023-12-11T07:39:30.497Z,2649.00
2023-12-11T07:40:30.543Z,2676.00
2023-12-11T07:41:30.588Z,2690.00
2023-12-11T07:42:30.631Z,2714.00
2023-12-11T07:43:30.650Z,2852.00
2023-12-11T07:44:30.698Z,2835.00
2023-12-11T07:45:30.717Z,2831.00
2023-12-11T07:46:30.770Z,2515.00
2023-12-11T07:47:31.052Z,2413.00
2023-12-11T07:48:30.894Z,2469.00
2023-12-11T07:49:31.105Z,2100.00
2023-12-11T07:50:30.968Z,2528.00
2023-12-11T07:51:31.018Z,2156.00
2023-12-11T07:52:31.055Z,1969.00
2023-12-11T07:53:31.032Z,1900.00
2023-12-11T07:54:31.048Z,1879.00
2023-12-11T07:55:31.096Z,1872.00
2023-12-11T07:56:31.195Z,1853.00
2023-12-11T07:57:31.470Z,1836.00
2023-12-11T07:58:31.262Z,1827.00
2023-12-11T07:59:31.317Z,1822.00
2023-12-11T08:00:31.379Z,1821.00
2023-12-11T08:01:31.532Z,1828.00
2023-12-11T08:02:31.510Z,1841.00
2023-12-11T08:03:31.636Z,1848.00
2023-12-11T08:04:31.724Z,1861.00
2023-12-11T08:05:31.717Z,1905.00
2023-12-11T08:06:31.720Z,1945.00
2023-12-11T08:07:32.064Z,1985.00
2023-12-11T08:08:31.829Z,2002.00
2023-12-11T08:09:31.903Z,1997.00
2023-12-11T08:10:32.131Z,1905.00
2023-12-11T08:11:32.015Z,1866.00
2023-12-11T08:12:32.105Z,1797.00
2023-12-11T08:13:32.146Z,1750.00
2023-12-11T08:14:32.208Z,1742.00
2023-12-11T08:15:32.277Z,1708.00
2023-12-11T08:16:32.341Z,1677.00
2023-12-11T08:17:32.639Z,1645.00
2023-12-11T08:18:32.522Z,1610.00
2023-12-11T08:19:32.591Z,1589.00
2023-12-11T08:20:32.585Z,1119.00
2023-12-11T08:21:32.630Z,1086.00
2023-12-11T08:22:32.704Z,941.00
2023-12-11T08:23:32.752Z,785.00
2023-12-11T08:24:32.808Z,735.00
2023-12-11T08:25:33.668Z,738.00
2023-12-11T08:26:32.933Z,752.00
2023-12-11T08:27:33.026Z,798.00
2023-12-11T08:28:33.097Z,797.00
2023-12-11T08:29:33.095Z,797.00
2023-12-11T08:30:33.155Z,843.00
2023-12-11T08:31:33.156Z,866.00
2023-12-11T08:32:34.191Z,883.00
2023-12-11T08:33:33.329Z,922.00
2023-12-11T08:34:34.165Z,939.00
2023-12-11T08:35:33.418Z,957.00
2023-12-11T08:36:33.481Z,977.00
2023-12-11T08:37:33.860Z,1012.00
2023-12-11T08:38:33.591Z,1025.00
2023-12-11T08:39:33.647Z,1041.00
2023-12-11T08:40:33.708Z,1079.00
2023-12-11T08:41:33.724Z,1094.00
2023-12-11T08:42:36.322Z,1111.00
2023-12-11T08:43:34.820Z,1135.00
2023-12-11T08:44:33.767Z,1148.00
2023-12-11T08:45:33.773Z,1168.00
2023-12-11T08:46:33.782Z,1188.00
2023-12-11T08:47:37.348Z,1215.00
2023-12-11T08:48:34.986Z,1248.00
2023-12-11T08:49:33.862Z,1309.00
2023-12-11T08:50:33.754Z,1313.00
2023-12-11T08:51:33.731Z,1343.00
2023-12-11T08:52:33.742Z,1360.00
2023-12-11T08:53:33.721Z,1379.00
2023-12-11T08:54:33.723Z,1433.00
2023-12-11T08:55:33.716Z,1443.00
2023-12-11T08:56:33.754Z,1445.00
2023-12-11T08:57:33.963Z,1481.00
2023-12-11T08:58:33.898Z,1503.00
2023-12-11T08:59:33.992Z,1515.00
2023-12-11T09:00:33.964Z,1536.00
2023-12-11T09:01:34.081Z,1560.00
2023-12-11T09:02:34.053Z,1581.00
2023-12-11T09:03:34.092Z,1597.00
2023-12-11T09:04:34.253Z,1635.00
2023-12-11T09:05:34.178Z,1650.00
2023-12-11T09:06:34.171Z,1673.00
2023-12-11T09:07:34.401Z,1719.00
2023-12-11T09:08:34.231Z,1741.00
2023-12-11T09:09:34.261Z,1758.00
2023-12-11T09:10:34.299Z,1783.00
2023-12-11T09:11:35.169Z,1801.00
2023-12-11T09:12:34.417Z,1816.00
2023-12-11T09:13:34.409Z,1822.00
2023-12-11T09:14:34.399Z,1819.00
2023-12-11T09:15:34.580Z,1818.00
2023-12-11T09:16:34.530Z,1810.00
2023-12-11T09:17:34.946Z,1717.00
2023-12-11T09:18:34.747Z,1721.00
2023-12-11T09:19:44.206Z,1717.00
2023-12-11T09:20:35.792Z,1717.00
2023-12-11T09:21:34.585Z,1703.00
2023-12-11T09:22:34.555Z,1669.00
2023-12-11T09:23:34.533Z,1650.00
2023-12-11T09:24:34.517Z,1646.00
2023-12-11T09:25:36.681Z,1637.00
2023-12-11T09:26:34.553Z,1626.00
2023-12-11T09:27:34.564Z,1572.00
2023-12-11T09:28:41.561Z,1552.00
2023-12-11T09:29:35.606Z,1547.00
2023-12-11T09:30:34.596Z,1545.00
2023-12-11T09:31:34.612Z,1541.00
2023-12-11T09:32:34.642Z,1536.00
2023-12-11T09:33:34.658Z,1531.00
2023-12-11T09:34:34.794Z,1527.00
2023-12-11T09:35:34.626Z,1520.00
2023-12-11T09:36:34.558Z,1519.00
2023-12-11T09:37:34.599Z,1518.00
2023-12-11T09:38:34.516Z,1518.00
2023-12-11T09:39:34.505Z,1512.00
2023-12-11T09:40:34.506Z,1511.00
2023-12-11T09:41:34.509Z,1511.00
2023-12-11T09:42:35.195Z,1502.00
2023-12-11T09:43:34.463Z,1497.00
2023-12-11T09:44:34.455Z,1499.00
2023-12-11T09:45:34.448Z,1498.00
2023-12-11T09:46:34.441Z,1497.00
2023-12-11T09:47:34.937Z,1496.00
2023-12-11T09:48:35.248Z,1493.00
2023-12-11T09:49:34.454Z,1488.00
2023-12-11T09:50:34.488Z,1487.00
2023-12-11T09:51:34.410Z,1487.00
2023-12-11T09:52:35.715Z,1489.00
2023-12-11T09:53:34.428Z,1491.00
2023-12-11T09:54:34.453Z,1488.00
2023-12-11T09:55:34.451Z,1484.00
2023-12-11T09:56:34.478Z,1482.00
2023-12-11T09:57:34.470Z,1479.00
2023-12-11T09:58:34.490Z,1478.00
2023-12-11T09:59:34.487Z,1475.00
2023-12-11T10:00:34.516Z,1471.00
2023-12-11T10:01:34.611Z,1469.00
2023-12-11T10:02:34.590Z,1464.00
2023-12-11T10:03:34.698Z,1464.00
2023-12-11T10:04:35.249Z,1461.00
2023-12-11T10:05:34.631Z,1458.00
2023-12-11T10:06:34.670Z,1455.00
2023-12-11T10:07:34.688Z,1456.00
2023-12-11T10:08:34.712Z,1451.00
2023-12-11T10:09:34.716Z,1448.00
2023-12-11T10:10:34.974Z,1444.00
2023-12-11T10:11:35.613Z,1441.00
2023-12-11T10:12:34.787Z,1440.00
2023-12-11T10:13:34.815Z,1437.00
2023-12-11T10:14:34.838Z,1433.00
2023-12-11T10:15:34.876Z,1430.00
2023-12-11T10:16:34.920Z,1426.00
2023-12-11T10:17:35.323Z,1422.00
2023-12-11T10:18:35.042Z,1421.00
2023-12-11T10:19:35.201Z,1424.00
2023-12-11T10:20:35.906Z,1433.00
2023-12-11T10:21:35.048Z,1521.00
2023-12-11T10:22:35.056Z,1530.00
2023-12-11T10:23:35.078Z,1544.00
2023-12-11T10:24:35.122Z,1595.00
2023-12-11T10:25:35.185Z,1609.00
2023-12-11T10:26:35.201Z,1638.00
2023-12-11T10:27:35.063Z,1673.00
2023-12-11T10:28:35.802Z,1700.00
2023-12-11T10:29:35.704Z,1729.00
2023-12-11T10:30:35.074Z,1745.00
2023-12-11T10:31:35.702Z,1787.00
2023-12-11T10:32:35.119Z,1815.00
2023-12-11T10:33:35.454Z,1845.00
2023-12-11T10:34:36.215Z,1872.00
2023-12-11T10:35:35.267Z,1887.00
2023-12-11T10:36:35.282Z,1904.00
2023-12-11T10:37:35.318Z,1980.00
2023-12-11T10:38:35.365Z,1991.00
2023-12-11T10:39:35.397Z,2001.00
2023-12-11T10:40:35.444Z,2016.00
2023-12-11T10:41:35.489Z,2050.00
2023-12-11T10:42:35.515Z,2103.00
2023-12-11T10:43:50.533Z,2108.00
2023-12-11T10:44:46.662Z,2133.00
2023-12-11T10:45:36.516Z,2166.00
2023-12-11T10:46:35.584Z,2186.00
2023-12-11T10:47:35.948Z,2221.00
2023-12-11T10:48:35.578Z,2238.00
2023-12-11T10:49:36.478Z,2260.00
2023-12-11T10:50:35.441Z,2279.00
2023-12-11T10:51:35.434Z,2316.00
2023-12-11T10:52:35.477Z,2338.00
2023-12-11T10:53:35.406Z,2365.00
2023-12-11T10:54:35.401Z,2406.00
2023-12-11T10:55:35.538Z,2444.00
2023-12-11T10:56:35.400Z,2457.00
2023-12-11T10:57:35.693Z,2464.00
2023-12-11T10:58:35.307Z,2483.00
2023-12-11T10:59:35.292Z,2505.00
2023-12-11T11:00:35.318Z,2541.00
2023-12-11T11:01:35.358Z,2570.00
2023-12-11T11:02:35.288Z,2593.00
2023-12-11T11:03:35.304Z,2645.00
2023-12-11T11:04:35.238Z,2667.00
2023-12-11T11:05:35.313Z,2698.00
2023-12-11T11:06:35.213Z,2718.00
2023-12-11T11:07:35.532Z,2737.00
2023-12-11T11:08:35.155Z,2765.00
2023-12-11T11:09:35.142Z,2828.00
2023-12-11T11:10:35.131Z,2901.00
2023-12-11T11:11:35.112Z,2908.00
2023-12-11T11:12:36.737Z,2923.00
2023-12-11T11:13:35.148Z,2928.00
2023-12-11T11:14:35.163Z,2914.00
2023-12-11T11:15:35.204Z,2123.00
2023-12-11T11:16:35.226Z,1800.00
2023-12-11T11:17:35.449Z,2588.00
2023-12-11T11:18:35.453Z,2706.00
2023-12-11T11:19:35.388Z,2439.00
2023-12-11T11:20:36.158Z,2450.00
2023-12-11T11:21:36.450Z,2458.00
2023-12-11T11:22:38.878Z,2474.00
2023-12-11T11:23:37.170Z,2497.00
2023-12-11T11:24:35.536Z,2519.00
2023-12-11T11:25:35.604Z,2531.00
2023-12-11T11:26:35.711Z,2548.00
2023-12-11T11:27:35.403Z,2574.00
2023-12-11T11:28:35.546Z,2632.00
2023-12-11T11:29:35.373Z,2646.00
2023-12-11T11:30:35.366Z,2669.00
2023-12-11T11:31:35.373Z,2724.00
2023-12-11T11:32:35.341Z,2742.00
2023-12-11T11:33:35.323Z,2756.00
2023-12-11T11:34:35.312Z,2763.00
2023-12-11T11:35:35.251Z,2766.00
2023-12-11T11:36:35.229Z,2787.00
2023-12-11T11:37:35.277Z,2820.00
2023-12-11T11:38:35.206Z,2845.00
2023-12-11T11:39:37.800Z,2847.00
2023-12-11T11:40:35.342Z,2851.00
2023-12-11T11:41:35.219Z,2867.00
2023-12-11T11:42:35.148Z,2890.00
2023-12-11T11:43:35.118Z,2910.00
2023-12-11T11:44:35.106Z,2928.00
2023-12-11T11:45:35.086Z,2941.00
2023-12-11T11:46:35.067Z,2952.00
2023-12-11T11:47:35.220Z,2965.00
2023-12-11T11:48:35.111Z,2982.00
2023-12-11T11:49:35.077Z,2993.00
2023-12-11T11:50:34.982Z,3024.00
2023-12-11T11:51:34.960Z,3043.00
2023-12-11T11:52:34.978Z,3065.00
2023-12-11T11:53:34.925Z,3089.00
2023-12-11T11:54:34.905Z,3102.00
2023-12-11T11:55:34.999Z,3144.00
2023-12-11T11:56:34.872Z,3158.00
2023-12-11T11:57:34.846Z,3161.00
2023-12-11T11:58:34.825Z,3195.00
2023-12-11T11:59:34.795Z,3256.00
2023-12-11T12:00:34.804Z,3268.00
2023-12-11T12:01:35.943Z,3347.00
2023-12-11T12:02:34.744Z,3375.00
2023-12-11T12:03:34.773Z,3409.00
2023-12-11T12:04:34.823Z,3431.00
2023-12-11T12:05:34.676Z,3448.00
2023-12-11T12:06:34.666Z,3453.00
2023-12-11T12:07:34.662Z,3445.00
2023-12-11T12:08:34.624Z,3445.00
2023-12-11T12:09:34.611Z,3437.00
2023-12-11T12:10:34.634Z,3414.00
2023-12-11T12:11:34.551Z,3395.00
2023-12-11T12:12:34.534Z,3389.00
2023-12-11T12:13:34.597Z,3390.00
2023-12-11T12:14:35.249Z,3383.00
2023-12-11T12:15:34.496Z,3380.00
2023-12-11T12:16:34.474Z,3373.00
2023-12-11T12:17:35.026Z,3363.00
2023-12-11T12:18:34.616Z,3351.00